CheckWX is a tool to help pilots better visualize weather data.  It is not intended as a substitute for an official pre-flight weather briefing.

08:53:05 UTC

CYMJ METAR
Moose Jaw Air Vice Marshal C. M. McEwen Airport
Moose Jaw, Canada
Current

9 hours ago

CYMJ 252336Z 24010KT 15SM FEW250 M03/M11 A3048 RMK CI1 LAST OBS / NXT 261000 UTC SLP363
Observed
Feb-25 @ 23:36 UTC
Wind
  • 240° at 10 KTS
Visibility
15 SM
Flight Rules
VFR
Cloud Levels
  • Few at 25,000' AGL
Temperature
-3°C / 27°F
Dewpoint
-11°C / 12°F
Humidity
54%
Altimeter
30.48" Hg
Pressure
1032.22 hPa
Previous

10 hours ago

CYMJ 252300Z 24009KT 15SM FEW030 FEW250 M02/M11 A3049 RMK CF1CI1 SLP366
Observed
Feb-25 @ 23:00 UTC
Wind
  • 240° at 9 KTS
Visibility
15 SM
Flight Rules
VFR
Cloud Levels
  • Few at 3,000' AGL
  • Few at 25,000' AGL
Temperature
-2°C / 28°F
Dewpoint
-11°C / 12°F
Humidity
51%
Altimeter
30.49" Hg
Pressure
1032.52 hPa
Previous

11 hours ago

CYMJ 252200Z 24011KT 15SM FEW030 SCT250 M02/M10 A3051 RMK CF1CI2 SLP370
Observed
Feb-25 @ 22:00 UTC
Wind
  • 240° at 11 KTS
Visibility
15 SM
Flight Rules
VFR
Cloud Levels
  • Few at 3,000' AGL
  • Scattered at 25,000' AGL
Temperature
-2°C / 28°F
Dewpoint
-10°C / 14°F
Humidity
55%
Altimeter
30.51" Hg
Pressure
1033.22 hPa